Terminal Aerodrome Forecast
Issued by NWS

Home | Current Version | Previous Version | Text Only | Print | Product List | Glossary On
Versions: 1 2 3 4 5 6 7 8 9 10 11 12 13
000
FTUS43 KTOP 231144
TAFMHK
TAF
KMHK 231144Z 2312/2412 06011G18KT P6SM VCSH OVC070
      TEMPO 2313/2316 -RA
     FM231900 08011G20KT P6SM BKN060
     FM232300 05010KT P6SM SCT100
     FM240500 30010KT P6SM SCT020
     FM240800 29014G23KT P6SM BKN015=

USA.gov is the U.S. government's official web portal to all federal, state and local government web resources and services.